createdAt,value
2022-08-24T00:01:58.057Z,15.17
2022-08-24T00:04:26.265Z,15.17
2022-08-24T00:06:56.984Z,13.77
2022-08-24T00:09:25.183Z,13.83
2022-08-24T00:11:53.354Z,12.63
2022-08-24T00:14:21.655Z,13.43
2022-08-24T00:16:49.967Z,13.80
2022-08-24T00:19:19.575Z,14.10
2022-08-24T00:21:48.106Z,15.00
2022-08-24T00:24:16.564Z,14.07
2022-08-24T00:26:46.031Z,14.33
2022-08-24T00:29:14.263Z,14.70
2022-08-24T00:31:42.499Z,14.50
2022-08-24T00:34:13.388Z,17.20
2022-08-24T00:36:43.534Z,14.87
2022-08-24T00:39:12.837Z,15.43
2022-08-24T00:41:43.868Z,15.37
2022-08-24T00:44:13.949Z,15.13
2022-08-24T00:46:47.149Z,15.03
2022-08-24T00:49:22.818Z,14.73
2022-08-24T00:51:57.537Z,15.40
2022-08-24T00:54:30.499Z,16.57
2022-08-24T00:57:03.576Z,17.13
2022-08-24T00:59:37.424Z,17.07
2022-08-24T01:02:15.320Z,16.60
2022-08-24T01:04:50.644Z,17.03
2022-08-24T01:07:23.171Z,17.57
2022-08-24T01:09:52.430Z,16.80
2022-08-24T01:12:21.111Z,16.60
2022-08-24T01:14:50.311Z,16.30
2022-08-24T01:17:39.193Z,17.17
2022-08-24T01:20:11.087Z,17.53
2022-08-24T01:23:03.506Z,17.40
2022-08-24T01:25:34.548Z,17.80
2022-08-24T01:28:08.969Z,17.20
2022-08-24T01:30:37.961Z,16.60
2022-08-24T01:33:10.110Z,17.80
2022-08-24T01:35:40.133Z,17.23
2022-08-24T01:38:12.647Z,16.10
2022-08-24T01:40:46.931Z,17.70
2022-08-24T01:43:16.004Z,16.67
2022-08-24T01:45:44.931Z,16.10
2022-08-24T01:48:13.920Z,17.80
2022-08-24T01:50:42.411Z,17.57
2022-08-24T01:53:11.551Z,18.57
2022-08-24T01:55:40.181Z,17.77
2022-08-24T01:58:10.623Z,18.87
2022-08-24T02:00:41.542Z,19.37
2022-08-24T02:03:09.761Z,20.03
2022-08-24T02:05:37.996Z,20.13
2022-08-24T02:08:06.415Z,20.23
2022-08-24T02:10:35.255Z,22.07
2022-08-24T02:13:06.100Z,19.60
2022-08-24T02:15:40.322Z,20.53
2022-08-24T02:18:15.142Z,20.67
2022-08-24T02:20:46.067Z,20.60
2022-08-24T02:23:14.625Z,23.17
2022-08-24T02:25:43.544Z,21.80
2022-08-24T02:28:11.867Z,23.73
2022-08-24T02:30:41.962Z,22.60
2022-08-24T02:33:10.202Z,24.33
2022-08-24T02:35:38.735Z,25.93
2022-08-24T02:38:09.121Z,24.90
2022-08-24T02:40:39.102Z,24.70
2022-08-24T02:43:07.301Z,24.73
2022-08-24T02:45:39.985Z,24.80
2022-08-24T02:48:10.469Z,26.80
2022-08-24T02:50:40.769Z,26.40
2022-08-24T02:53:09.178Z,24.83
2022-08-24T02:55:41.251Z,26.73
2022-08-24T02:58:10.896Z,27.77
2022-08-24T03:00:40.670Z,27.83
2022-08-24T03:03:11.499Z,27.13
2022-08-24T03:05:40.402Z,27.67
2022-08-24T03:08:09.188Z,28.30
2022-08-24T03:10:37.459Z,26.27
2022-08-24T03:13:06.382Z,26.50
2022-08-24T03:15:34.697Z,28.83
2022-08-24T03:18:03.454Z,27.50
2022-08-24T03:20:34.204Z,28.13
2022-08-24T03:23:03.570Z,28.27
2022-08-24T03:25:32.614Z,27.17
2022-08-24T03:28:01.302Z,24.60
2022-08-24T03:30:30.447Z,28.10
2022-08-24T03:33:00.252Z,26.60
2022-08-24T03:35:28.740Z,27.10
2022-08-24T03:37:58.647Z,25.43
2022-08-24T03:40:27.155Z,27.20
2022-08-24T03:42:57.878Z,25.83
2022-08-24T03:45:27.245Z,24.97
2022-08-24T03:47:56.487Z,26.30
2022-08-24T03:50:25.698Z,26.00
2022-08-24T03:52:54.514Z,28.40
2022-08-24T03:55:24.201Z,25.63
2022-08-24T03:57:53.284Z,27.17
2022-08-24T04:00:21.571Z,28.20
2022-08-24T04:02:58.203Z,27.40
2022-08-24T04:05:28.014Z,26.30
2022-08-24T04:08:03.273Z,27.67
2022-08-24T04:10:33.640Z,24.83
2022-08-24T04:13:02.464Z,27.93
2022-08-24T04:15:31.740Z,26.93
2022-08-24T04:17:59.887Z,26.70
2022-08-24T04:20:28.778Z,27.13
2022-08-24T04:22:57.648Z,24.10
2022-08-24T04:25:25.884Z,25.50
2022-08-24T04:27:55.416Z,28.00
2022-08-24T04:30:24.722Z,26.27
2022-08-24T04:33:10.349Z,26.37
2022-08-24T04:35:40.003Z,25.00
2022-08-24T04:38:08.718Z,26.50
2022-08-24T04:40:40.445Z,28.33
2022-08-24T04:43:14.779Z,22.57
2022-08-24T04:45:50.568Z,24.00
2022-08-24T04:48:19.255Z,22.37
2022-08-24T04:50:48.029Z,23.73
2022-08-24T04:53:17.188Z,23.80
2022-08-24T04:55:53.373Z,20.97
2022-08-24T04:58:22.882Z,20.50
2022-08-24T05:00:51.116Z,19.80
2022-08-24T05:03:19.387Z,19.63
2022-08-24T05:05:50.283Z,19.90
2022-08-24T05:08:20.260Z,20.03
2022-08-24T05:10:50.600Z,20.77
2022-08-24T05:13:19.817Z,19.97
2022-08-24T05:15:50.110Z,20.17
2022-08-24T05:18:19.237Z,18.70
2022-08-24T05:20:48.642Z,18.10
2022-08-24T05:23:19.806Z,18.57
2022-08-24T05:25:48.167Z,18.47
2022-08-24T05:28:16.271Z,18.30
2022-08-24T05:30:45.228Z,19.20
2022-08-24T05:33:15.799Z,19.63
2022-08-24T05:35:44.618Z,19.63
2022-08-24T05:38:14.256Z,17.57
2022-08-24T05:40:43.626Z,19.03
2022-08-24T05:43:12.073Z,17.10
2022-08-24T05:45:43.398Z,18.00
2022-08-24T05:48:12.480Z,17.00
2022-08-24T05:51:02.824Z,19.57
2022-08-24T05:53:36.559Z,19.43
2022-08-24T05:56:07.536Z,13.60
2022-08-24T05:58:37.495Z,12.50
2022-08-24T06:01:08.625Z,12.47
2022-08-24T06:03:36.781Z,13.03
2022-08-24T06:06:09.092Z,16.70
2022-08-24T06:08:41.242Z,17.80
2022-08-24T06:11:11.793Z,17.40
2022-08-24T06:13:41.114Z,15.90
2022-08-24T06:16:21.214Z,18.00
2022-08-24T06:18:51.499Z,16.17
2022-08-24T06:21:24.594Z,14.30
2022-08-24T06:23:53.796Z,13.60
2022-08-24T06:26:40.687Z,14.20
2022-08-24T06:29:10.985Z,13.03
2022-08-24T06:31:47.080Z,10.27
2022-08-24T06:34:19.039Z,10.20
2022-08-24T06:36:48.729Z,10.60
2022-08-24T06:39:17.064Z,9.80
2022-08-24T06:41:46.815Z,9.70
2022-08-24T06:44:21.653Z,9.27
2022-08-24T06:46:59.432Z,9.40
2022-08-24T06:49:27.975Z,9.03
2022-08-24T06:51:57.834Z,10.00
2022-08-24T06:54:25.926Z,8.60
2022-08-24T06:56:55.327Z,9.03
2022-08-24T06:59:23.708Z,8.47
2022-08-24T07:01:51.977Z,9.77
2022-08-24T07:04:20.259Z,9.60
2022-08-24T07:07:08.094Z,8.13
2022-08-24T07:09:36.480Z,8.77
2022-08-24T07:12:05.520Z,9.80
2022-08-24T07:14:34.358Z,8.53
2022-08-24T07:17:03.775Z,9.73
2022-08-24T07:19:33.388Z,9.13
2022-08-24T07:22:02.068Z,9.90
2022-08-24T07:24:32.342Z,9.70
2022-08-24T07:27:01.351Z,9.23
2022-08-24T07:29:48.451Z,8.70
2022-08-24T07:32:18.467Z,8.70
2022-08-24T07:34:47.187Z,8.53
2022-08-24T07:37:15.390Z,7.73
2022-08-24T07:39:48.866Z,8.10
2022-08-24T07:42:26.922Z,8.40
2022-08-24T07:45:00.488Z,8.50
2022-08-24T07:47:54.035Z,8.50
2022-08-24T07:50:28.603Z,7.63
2022-08-24T07:52:56.805Z,7.50
2022-08-24T07:55:26.431Z,7.33
2022-08-24T07:57:54.928Z,7.80
2022-08-24T08:00:24.009Z,8.60
2022-08-24T08:02:57.674Z,7.30
2022-08-24T08:05:26.502Z,7.40
2022-08-24T08:07:56.884Z,7.67
2022-08-24T08:10:26.617Z,8.10
2022-08-24T08:12:55.131Z,7.67
2022-08-24T08:15:23.334Z,7.00
2022-08-24T08:18:00.282Z,7.03
2022-08-24T08:20:28.447Z,7.93
2022-08-24T08:23:14.938Z,7.43
2022-08-24T08:25:49.088Z,6.20
2022-08-24T08:28:25.835Z,6.07
2022-08-24T08:30:55.173Z,5.97
2022-08-24T08:35:57.468Z,5.50
2022-08-24T08:38:27.246Z,6.80
2022-08-24T08:41:13.004Z,5.30
2022-08-24T08:44:00.859Z,5.23
2022-08-24T08:46:46.329Z,5.07
2022-08-24T08:49:35.804Z,5.90
2022-08-24T08:52:34.822Z,5.43
2022-08-24T08:55:19.586Z,5.53
2022-08-24T08:58:03.998Z,5.47
2022-08-24T09:00:50.070Z,5.20
2022-08-24T09:03:48.136Z,5.70
2022-08-24T09:07:12.966Z,5.67
2022-08-24T09:10:04.021Z,5.30
2022-08-24T09:12:50.157Z,5.70
2022-08-24T09:15:50.836Z,6.40
2022-08-24T09:18:37.135Z,5.30
2022-08-24T09:21:16.900Z,5.80
2022-08-24T09:23:55.365Z,5.60
2022-08-24T09:26:29.220Z,5.50
2022-08-24T09:29:12.135Z,6.60
2022-08-24T09:31:56.336Z,6.93
2022-08-24T09:34:37.469Z,5.30
2022-08-24T09:37:25.072Z,6.60
2022-08-24T09:40:02.588Z,5.40
2022-08-24T09:43:07.211Z,5.30
2022-08-24T09:46:09.175Z,5.77
2022-08-24T09:49:14.115Z,6.70
2022-08-24T09:52:30.267Z,5.60
2022-08-24T09:55:30.542Z,4.93
2022-08-24T09:58:14.424Z,5.83
2022-08-24T10:00:47.735Z,5.37
2022-08-24T10:03:37.843Z,6.50
2022-08-24T10:06:18.750Z,6.40
2022-08-24T10:09:04.161Z,6.87
2022-08-24T10:11:44.550Z,6.10
2022-08-24T10:14:20.276Z,6.37
2022-08-24T10:17:01.740Z,6.10
2022-08-24T10:19:51.028Z,5.70
2022-08-24T10:22:32.054Z,6.80
2022-08-24T10:25:11.795Z,6.90
2022-08-24T10:28:01.954Z,6.40
2022-08-24T10:30:52.933Z,7.17
2022-08-24T10:33:23.783Z,6.87
2022-08-24T10:36:45.746Z,6.83
2022-08-24T10:39:45.873Z,7.57
2022-08-24T10:43:18.674Z,6.60
2022-08-24T10:46:33.347Z,7.23
2022-08-24T10:49:46.095Z,6.20
2022-08-24T10:52:38.102Z,6.63
2022-08-24T10:55:22.390Z,6.63
2022-08-24T10:58:00.902Z,6.93
2022-08-24T11:00:31.496Z,5.90
2022-08-24T11:03:12.502Z,6.93
2022-08-24T11:05:46.241Z,5.97
2022-08-24T11:08:22.180Z,5.90
2022-08-24T11:11:12.320Z,5.60
2022-08-24T11:13:52.549Z,5.77
2022-08-24T11:16:35.221Z,6.00
2022-08-24T11:19:07.567Z,6.23
2022-08-24T11:21:49.132Z,6.33
2022-08-24T11:24:31.878Z,6.10
2022-08-24T11:27:06.760Z,5.87
2022-08-24T11:29:57.691Z,6.63
2022-08-24T11:32:33.188Z,6.40
2022-08-24T11:35:05.520Z,6.00
2022-08-24T11:37:35.804Z,5.83
2022-08-24T11:40:05.889Z,6.47
2022-08-24T11:42:54.008Z,6.67
2022-08-24T11:45:29.941Z,6.53
2022-08-24T11:48:08.320Z,6.50
2022-08-24T11:50:46.783Z,7.20
2022-08-24T11:53:25.645Z,7.00
2022-08-24T11:56:03.939Z,7.10
2022-08-24T11:58:48.619Z,7.53
2022-08-24T12:01:24.143Z,6.80
2022-08-24T12:04:07.019Z,7.60
2022-08-24T12:06:46.930Z,7.53
2022-08-24T12:09:30.962Z,7.33
2022-08-24T12:12:07.699Z,7.60
2022-08-24T12:14:43.691Z,7.83
2022-08-24T12:17:20.404Z,7.73
2022-08-24T12:19:51.104Z,7.07
2022-08-24T12:22:22.103Z,6.53
2022-08-24T12:24:53.575Z,6.63
2022-08-24T12:27:25.463Z,7.53
2022-08-24T12:30:05.297Z,8.57
2022-08-24T12:32:41.004Z,8.17
2022-08-24T12:35:16.871Z,8.47
2022-08-24T12:37:49.892Z,8.70
2022-08-24T12:40:28.090Z,8.60
2022-08-24T12:43:02.272Z,9.20
2022-08-24T12:45:31.879Z,8.27
2022-08-24T12:48:04.273Z,7.53
2022-08-24T12:50:41.022Z,8.07
2022-08-24T12:53:42.268Z,7.63
2022-08-24T12:56:54.155Z,7.40
2022-08-24T12:59:26.495Z,7.93
2022-08-24T13:02:02.939Z,8.00
2022-08-24T13:04:38.907Z,7.33
2022-08-24T13:07:10.324Z,8.13
2022-08-24T13:09:42.357Z,8.30
2022-08-24T13:12:53.264Z,7.53
2022-08-24T13:15:59.926Z,8.93
2022-08-24T13:18:50.709Z,7.40
2022-08-24T13:21:39.101Z,8.40
2022-08-24T13:24:50.267Z,7.10
2022-08-24T13:27:48.917Z,8.40
2022-08-24T13:30:25.146Z,9.37
2022-08-24T13:33:00.957Z,8.77
2022-08-24T13:35:55.179Z,9.10
2022-08-24T13:38:47.755Z,8.57
2022-08-24T13:41:33.422Z,8.90
2022-08-24T13:44:11.128Z,9.03
2022-08-24T13:46:49.368Z,9.10
2022-08-24T13:49:33.427Z,9.60
2022-08-24T13:52:15.546Z,9.43
2022-08-24T13:54:52.608Z,8.70
2022-08-24T13:57:35.629Z,9.27
2022-08-24T14:00:17.971Z,9.90
2022-08-24T14:03:03.239Z,10.20
2022-08-24T14:05:37.076Z,9.00
2022-08-24T14:08:23.780Z,8.37
2022-08-24T14:11:03.551Z,8.10
2022-08-24T14:13:50.451Z,8.53
2022-08-24T14:16:51.907Z,9.43
2022-08-24T14:19:26.556Z,7.97
2022-08-24T14:22:02.089Z,9.20
2022-08-24T14:24:45.942Z,8.73
2022-08-24T14:27:37.299Z,7.97
2022-08-24T14:30:40.779Z,7.50
2022-08-24T14:33:20.413Z,8.90
2022-08-24T14:36:04.743Z,8.07
2022-08-24T14:38:57.996Z,7.77
2022-08-24T14:41:44.602Z,8.10
2022-08-24T14:44:25.982Z,8.00
2022-08-24T14:47:03.538Z,9.07
2022-08-24T14:49:42.234Z,7.83
2022-08-24T14:52:45.479Z,7.93
2022-08-24T14:55:19.866Z,8.77
2022-08-24T14:58:17.154Z,8.20
2022-08-24T15:01:00.514Z,8.13
2022-08-24T15:04:01.315Z,8.80
2022-08-24T15:06:38.566Z,8.90
2022-08-24T15:09:10.186Z,8.20
2022-08-24T15:11:40.761Z,10.43
2022-08-24T15:14:22.599Z,9.60
2022-08-24T15:17:00.535Z,9.40
2022-08-24T15:19:36.960Z,10.30
2022-08-24T15:22:11.563Z,9.97
2022-08-24T15:24:46.264Z,10.50
2022-08-24T15:27:25.419Z,9.50
2022-08-24T15:29:57.888Z,10.23
2022-08-24T15:32:41.399Z,9.80
2022-08-24T15:35:09.491Z,9.60
2022-08-24T15:37:41.191Z,10.70
2022-08-24T15:40:22.581Z,10.30
2022-08-24T15:42:52.017Z,9.53
2022-08-24T15:45:22.154Z,9.33
2022-08-24T15:47:53.098Z,10.07
2022-08-24T15:50:25.835Z,9.60
2022-08-24T15:53:00.208Z,8.63
2022-08-24T15:55:38.816Z,8.97
2022-08-24T15:58:28.401Z,9.77
2022-08-24T16:01:33.445Z,10.20
2022-08-24T16:04:03.434Z,10.13
2022-08-24T16:06:38.874Z,9.87
2022-08-24T16:09:10.087Z,10.03
2022-08-24T16:11:42.177Z,10.70
2022-08-24T16:14:15.162Z,9.80
2022-08-24T16:16:46.539Z,8.90
2022-08-24T16:19:24.231Z,11.03
2022-08-24T16:21:58.377Z,10.40
2022-08-24T16:24:33.008Z,11.10
2022-08-24T16:27:05.483Z,11.00
2022-08-24T16:29:55.743Z,11.53
2022-08-24T16:32:38.319Z,11.30
2022-08-24T16:35:19.334Z,9.90
2022-08-24T16:37:47.512Z,9.40
2022-08-24T16:40:16.255Z,10.70
2022-08-24T16:42:44.422Z,9.33
2022-08-24T16:45:17.250Z,10.07
2022-08-24T16:47:48.098Z,11.10
2022-08-24T16:50:18.758Z,11.27
2022-08-24T16:52:47.246Z,10.80
2022-08-24T16:55:15.388Z,10.50
2022-08-24T16:57:44.221Z,10.57
2022-08-24T17:00:17.380Z,11.80
2022-08-24T17:02:48.225Z,9.73
2022-08-24T17:05:17.898Z,11.00
2022-08-24T17:07:46.610Z,11.10
2022-08-24T17:10:17.339Z,11.77
2022-08-24T17:12:45.475Z,9.90
2022-08-24T17:15:16.195Z,10.90
2022-08-24T17:17:54.480Z,10.60
2022-08-24T17:20:22.680Z,11.50
2022-08-24T17:22:51.749Z,11.70
2022-08-24T17:25:19.883Z,10.20
2022-08-24T17:27:48.440Z,10.50
2022-08-24T17:30:18.551Z,10.27
2022-08-24T17:32:48.364Z,11.17
2022-08-24T17:35:16.648Z,11.33
2022-08-24T17:37:45.096Z,12.13
2022-08-24T17:40:16.455Z,10.47
2022-08-24T17:42:51.151Z,11.30
2022-08-24T17:45:20.398Z,11.10
2022-08-24T17:47:50.331Z,12.07
2022-08-24T17:50:19.835Z,10.83
2022-08-24T17:52:48.700Z,12.40
2022-08-24T17:55:25.222Z,11.47
2022-08-24T17:57:53.842Z,11.97
2022-08-24T18:00:21.905Z,12.80
2022-08-24T18:02:51.806Z,13.07
2022-08-24T18:05:20.247Z,11.63
2022-08-24T18:07:54.260Z,12.27
2022-08-24T18:10:25.328Z,11.20
2022-08-24T18:12:54.309Z,13.53
2022-08-24T18:15:22.897Z,11.50
2022-08-24T18:18:09.303Z,12.00
2022-08-24T18:20:40.047Z,12.33
2022-08-24T18:23:11.499Z,11.90
2022-08-24T18:25:44.955Z,12.97
2022-08-24T18:28:14.106Z,13.30
2022-08-24T18:30:42.522Z,12.87
2022-08-24T18:33:13.394Z,12.83
2022-08-24T18:35:41.679Z,13.23
2022-08-24T18:38:09.883Z,13.47
2022-08-24T18:40:38.273Z,13.20
2022-08-24T18:43:06.806Z,13.40
2022-08-24T18:45:36.032Z,13.37
2022-08-24T18:48:04.880Z,13.30
2022-08-24T18:50:37.711Z,13.00
2022-08-24T18:53:08.671Z,12.90
2022-08-24T18:55:38.690Z,16.00
2022-08-24T18:58:07.515Z,14.00
2022-08-24T19:00:36.262Z,14.70
2022-08-24T19:03:08.670Z,14.00
2022-08-24T19:05:38.412Z,14.00
2022-08-24T19:08:06.710Z,14.97
2022-08-24T19:10:37.232Z,17.80
2022-08-24T19:13:09.787Z,18.60
2022-08-24T19:15:40.158Z,16.03
2022-08-24T19:18:10.930Z,14.93
2022-08-24T19:20:47.398Z,13.93
2022-08-24T19:23:21.365Z,13.07
2022-08-24T19:25:50.067Z,14.00
2022-08-24T19:28:18.790Z,15.13
2022-08-24T19:30:47.694Z,13.80
2022-08-24T19:33:28.328Z,14.47
2022-08-24T19:35:59.421Z,37.20
2022-08-24T19:38:27.523Z,14.87
2022-08-24T19:40:57.195Z,12.80
2022-08-24T19:43:26.628Z,12.23
2022-08-24T19:46:05.319Z,13.03
2022-08-24T19:48:35.588Z,13.10
2022-08-24T19:51:07.934Z,12.80
2022-08-24T19:53:37.952Z,12.97
2022-08-24T19:56:06.917Z,13.63
2022-08-24T19:58:40.429Z,14.20
2022-08-24T20:01:13.318Z,13.27
2022-08-24T20:03:42.007Z,11.73
2022-08-24T20:06:12.687Z,12.17
2022-08-24T20:08:41.833Z,11.70
2022-08-24T20:11:10.329Z,14.10
2022-08-24T20:13:38.833Z,13.53
2022-08-24T20:16:10.590Z,14.27
2022-08-24T20:18:39.917Z,14.07
2022-08-24T20:21:08.661Z,13.30
2022-08-24T20:23:38.723Z,13.63
2022-08-24T20:26:08.608Z,13.67
2022-08-24T20:28:41.469Z,13.50
2022-08-24T20:31:10.686Z,13.50
2022-08-24T20:33:39.395Z,13.60
2022-08-24T20:36:11.655Z,14.17
2022-08-24T20:38:45.477Z,12.30
2022-08-24T20:41:13.596Z,13.40
2022-08-24T20:43:41.725Z,13.20
2022-08-24T20:46:10.893Z,12.87
2022-08-24T20:48:43.227Z,12.60
2022-08-24T20:51:11.734Z,16.03
2022-08-24T20:53:39.902Z,12.90
2022-08-24T20:56:12.632Z,13.60
2022-08-24T20:58:41.485Z,12.77
2022-08-24T21:01:09.728Z,12.87
2022-08-24T21:03:38.049Z,13.30
2022-08-24T21:06:07.374Z,13.10
2022-08-24T21:08:36.106Z,12.87
2022-08-24T21:11:04.254Z,13.30
2022-08-24T21:13:33.827Z,11.93
2022-08-24T21:16:02.014Z,13.67
2022-08-24T21:18:30.249Z,13.50
2022-08-24T21:21:03.780Z,14.80
2022-08-24T21:23:33.823Z,14.20
2022-08-24T21:26:02.560Z,13.27
2022-08-24T21:28:31.094Z,14.10
2022-08-24T21:31:05.118Z,14.33
2022-08-24T21:33:51.552Z,13.90
2022-08-24T21:36:20.718Z,14.10
2022-08-24T21:38:48.807Z,13.73
2022-08-24T21:41:16.907Z,14.07
2022-08-24T21:43:45.049Z,14.20
2022-08-24T21:46:14.697Z,14.43
2022-08-24T21:48:42.819Z,14.00
2022-08-24T21:51:11.195Z,14.50
2022-08-24T21:53:39.393Z,14.90
2022-08-24T21:56:08.242Z,14.10
2022-08-24T21:58:36.413Z,14.53
2022-08-24T22:01:05.951Z,13.67
2022-08-24T22:03:39.959Z,13.47
2022-08-24T22:06:09.685Z,15.47
2022-08-24T22:08:38.399Z,14.80
2022-08-24T22:11:07.351Z,15.50
2022-08-24T22:13:36.007Z,15.40
2022-08-24T22:16:04.626Z,14.50
2022-08-24T22:18:33.041Z,14.60
2022-08-24T22:21:06.987Z,15.87
2022-08-24T22:23:35.192Z,13.77
2022-08-24T22:26:03.727Z,14.10
2022-08-24T22:28:32.298Z,14.17
2022-08-24T22:31:00.969Z,14.00
2022-08-24T22:33:29.332Z,15.23
2022-08-24T22:35:57.432Z,13.10
2022-08-24T22:38:26.918Z,13.80
2022-08-24T22:40:56.095Z,12.83
2022-08-24T22:43:44.205Z,14.10
2022-08-24T22:46:12.512Z,13.50
2022-08-24T22:48:40.635Z,14.50
2022-08-24T22:51:09.948Z,16.20
2022-08-24T22:53:39.502Z,15.23
2022-08-24T22:56:15.501Z,15.93
2022-08-24T22:58:43.662Z,14.30
2022-08-24T23:01:19.075Z,15.97
2022-08-24T23:03:49.661Z,16.00
2022-08-24T23:06:18.190Z,15.70
2022-08-24T23:08:47.678Z,15.50
2022-08-24T23:11:16.284Z,16.03
2022-08-24T23:13:44.423Z,16.23
2022-08-24T23:16:14.615Z,15.50
2022-08-24T23:19:00.079Z,15.60
2022-08-24T23:21:28.412Z,14.47
2022-08-24T23:23:58.122Z,16.63
2022-08-24T23:26:27.008Z,16.50
2022-08-24T23:28:55.335Z,16.77
2022-08-24T23:31:23.622Z,16.10
2022-08-24T23:33:53.728Z,14.60
2022-08-24T23:36:24.903Z,15.00
2022-08-24T23:38:55.392Z,14.30
2022-08-24T23:41:26.995Z,16.10
2022-08-24T23:43:56.123Z,14.20
2022-08-24T23:46:25.097Z,15.47
2022-08-24T23:48:55.196Z,14.40
2022-08-24T23:51:24.044Z,15.20
2022-08-24T23:53:52.730Z,14.80
2022-08-24T23:56:25.248Z,15.43
2022-08-24T23:58:54.831Z,14.60
